Time;durP1;ratioP1;P1;durP2;ratioP2;P2;SDS_P1;SDS_P2;PMS_P1;PMS_P2;Temp;Humidity;BMP_temperature;BMP_pressure;BME280_temperature;BME280_humidity;BME280_pressure;Samples;Min_cycle;Max_cycle;Signal;HPM_P1;HPM_P2
2021/12/17 18:48:41;;;;;;;34.70;17.17;;;;;;;0.70;100.00;100529.13;4992790;23;20490;-66
2021/12/17 18:51:07;;;;;;;36.40;17.23;;;;;;;0.66;100.00;100538.19;4822330;29;20381;-66
2021/12/17 18:53:33;;;;;;;35.60;17.73;;;;;;;0.58;100.00;100548.34;4824469;29;20480;-66
2021/12/17 18:55:59;;;;;;;37.77;17.20;;;;;;;0.61;100.00;100549.00;4808156;29;20342;-66
2021/12/17 18:58:25;;;;;;;42.77;17.07;;;;;;;0.66;100.00;100544.28;4824827;29;20034;-70
2021/12/17 19:00:52;;;;;;;33.63;17.70;;;;;;;0.51;100.00;100549.69;4808935;29;20042;-67
2021/12/17 19:03:25;;;;;;;33.60;17.43;;;;;;;0.49;100.00;100549.78;4824053;29;20328;-67
2021/12/17 19:05:57;;;;;;;35.30;17.90;;;;;;;0.31;100.00;100548.34;4823915;29;20285;-67
2021/12/17 19:08:26;;;;;;;37.83;18.83;;;;;;;0.30;100.00;100541.38;4824058;29;20328;-66
2021/12/17 19:10:53;;;;;;;37.63;18.87;;;;;;;0.30;100.00;100530.88;4822524;29;20309;-66
2021/12/17 19:13:20;;;;;;;37.93;18.17;;;;;;;0.22;100.00;100543.66;4806997;29;20275;-66
2021/12/17 19:15:46;;;;;;;38.03;18.07;;;;;;;0.07;100.00;100549.88;4806380;29;20457;-67
2021/12/17 19:18:34;;;;;;;37.57;19.20;;;;;;;0.12;100.00;100542.53;4807028;29;20287;-67
2021/12/17 19:21:05;;;;;;;34.53;17.03;;;;;;;0.07;100.00;100547.25;4805878;29;20291;-67
2021/12/17 19:23:31;;;;;;;38.00;17.50;;;;;;;0.18;100.00;100544.78;4805226;29;20278;-66
2021/12/17 19:25:57;;;;;;;35.87;17.13;;;;;;;0.14;100.00;100544.13;4806332;29;20274;-66
2021/12/17 19:28:24;;;;;;;32.67;16.43;;;;;;;0.18;100.00;100545.63;4806126;29;20064;-67
2021/12/17 19:30:51;;;;;;;35.13;16.07;;;;;;;0.13;100.00;100545.06;4806462;29;20038;-66
2021/12/17 19:33:18;;;;;;;36.43;16.70;;;;;;;-0.03;100.00;100549.59;4806076;29;20282;-67
2021/12/17 19:35:48;;;;;;;37.20;16.50;;;;;;;0.02;100.00;100551.91;4805875;29;20278;-66
2021/12/17 19:38:14;;;;;;;34.83;16.60;;;;;;;-0.10;100.00;100556.16;4806097;29;20278;-66
2021/12/17 19:40:40;;;;;;;36.33;17.73;;;;;;;-0.18;100.00;100553.16;4804998;29;20796;-66
2021/12/17 19:43:06;;;;;;;39.70;17.30;;;;;;;-0.02;100.00;100560.00;4804833;29;20556;-65
2021/12/17 19:45:31;;;;;;;33.63;16.07;;;;;;;-0.25;100.00;100552.69;4805829;29;20388;-66
2021/12/17 19:50:39;;;;;;;36.60;15.88;;;;;;;-0.22;100.00;100557.75;4823966;29;20033;-66
2021/12/17 19:53:04;;;;;;;35.43;16.10;;;;;;;-0.27;100.00;100556.34;4830298;29;20068;-67
2021/12/17 19:55:30;;;;;;;34.73;16.57;;;;;;;-0.13;100.00;100551.09;4806356;29;20290;-66
2021/12/17 19:57:56;;;;;;;37.50;16.40;;;;;;;-0.05;100.00;100557.56;4791252;29;20488;-66
2021/12/17 20:00:23;;;;;;;39.20;17.03;;;;;;;-0.15;100.00;100555.59;4822274;29;20042;-65
2021/12/17 20:02:54;;;;;;;35.27;16.23;;;;;;;-0.21;100.00;100572.56;4823375;29;20030;-65
2021/12/17 20:05:21;;;;;;;36.90;16.88;;;;;;;-0.31;100.00;100565.34;4806960;29;20281;-66
2021/12/17 20:07:48;;;;;;;38.47;17.42;;;;;;;-0.25;100.00;100567.63;4823576;29;20033;-66
2021/12/17 20:10:13;;;;;;;39.47;17.17;;;;;;;-0.32;100.00;100561.88;4807626;29;20049;-65
2021/12/17 20:12:40;;;;;;;39.00;16.73;;;;;;;-0.39;100.00;100553.53;4823102;29;20022;-66
2021/12/17 20:15:07;;;;;;;37.83;18.07;;;;;;;-0.44;100.00;100560.81;4806815;29;20361;-67
2021/12/17 20:17:34;;;;;;;41.78;19.88;;;;;;;-0.50;100.00;100563.84;4822337;29;20345;-67
2021/12/17 20:20:01;;;;;;;48.50;20.65;;;;;;;-0.47;100.00;100566.28;4806758;29;20042;-66
2021/12/17 20:22:26;;;;;;;52.03;20.85;;;;;;;-0.25;100.00;100563.22;4822873;29;20041;-66
2021/12/17 20:24:52;;;;;;;42.33;18.10;;;;;;;-0.39;100.00;100560.56;4823029;29;20046;-66
2021/12/17 20:27:18;;;;;;;43.33;18.03;;;;;;;-0.20;100.00;100561.13;4806424;29;20408;-66
2021/12/17 20:29:49;;;;;;;42.35;18.67;;;;;;;-0.30;100.00;100569.66;4806465;29;20433;-67
2021/12/17 20:32:15;;;;;;;45.30;19.40;;;;;;;-0.31;100.00;100576.69;4822631;29;20037;-63
2021/12/17 20:34:41;;;;;;;44.58;20.40;;;;;;;-0.13;100.00;100583.47;4806335;29;20034;-63
2021/12/17 20:37:08;;;;;;;45.20;19.20;;;;;;;-0.17;100.00;100576.72;4822627;29;20106;-67
2021/12/17 20:39:34;;;;;;;46.10;19.50;;;;;;;-0.21;100.00;100580.44;4822608;29;20034;-68
2021/12/17 20:42:01;;;;;;;44.83;18.23;;;;;;;-0.30;100.00;100580.16;4822688;29;20117;-66
2021/12/17 20:44:28;;;;;;;46.63;19.58;;;;;;;-0.29;100.00;100574.81;4806270;29;20392;-68
2021/12/17 20:46:57;;;;;;;50.80;21.13;;;;;;;-0.33;100.00;100572.47;4822721;29;20034;-66
2021/12/17 20:49:23;;;;;;;47.03;19.80;;;;;;;-0.16;100.00;100581.03;4802917;29;20359;-66
2021/12/17 20:51:50;;;;;;;43.83;20.08;;;;;;;-0.08;100.00;100584.03;4803304;29;20030;-67
2021/12/17 20:54:18;;;;;;;45.30;20.75;;;;;;;-0.25;100.00;100591.25;4802861;29;20038;-68
2021/12/17 20:56:44;;;;;;;43.17;20.17;;;;;;;-0.12;100.00;100595.69;4803033;29;20041;-68
2021/12/17 20:59:10;;;;;;;43.67;21.13;;;;;;;-0.25;100.00;100604.38;4802887;29;20286;-68
2021/12/17 21:01:36;;;;;;;42.13;19.27;;;;;;;-0.34;100.00;100607.53;4787294;29;20031;-68
2021/12/17 21:04:04;;;;;;;42.33;18.55;;;;;;;-0.24;100.00;100601.69;4803709;29;20397;-67
2021/12/17 21:06:30;;;;;;;45.25;18.88;;;;;;;-0.26;100.00;100606.16;4802927;29;20484;-68
2021/12/17 21:08:56;;;;;;;41.77;18.70;;;;;;;-0.40;100.00;100614.03;4803571;29;20508;-68
2021/12/17 21:11:30;;;;;;;44.13;18.97;;;;;;;-0.27;100.00;100620.25;4803842;29;20327;-68
2021/12/17 21:14:09;;;;;;;42.57;19.70;;;;;;;-0.20;100.00;100615.44;4802897;29;20030;-67
2021/12/17 21:16:36;;;;;;;43.03;18.07;;;;;;;-0.14;100.00;100613.31;4803945;29;20274;-68
2021/12/17 21:19:03;;;;;;;40.67;17.90;;;;;;;-0.04;100.00;100616.22;4802638;29;20286;-68
2021/12/17 21:21:31;;;;;;;42.13;17.77;;;;;;;-0.02;100.00;100604.69;4800682;29;20772;-68
2021/12/17 21:23:59;;;;;;;37.67;17.30;;;;;;;0.11;100.00;100603.94;4802057;29;20290;-70
2021/12/17 21:26:25;;;;;;;38.40;17.40;;;;;;;0.06;100.00;100613.88;4805668;29;20278;-70
2021/12/17 21:28:51;;;;;;;37.27;16.83;;;;;;;0.00;100.00;100604.59;4806530;29;20732;-70
2021/12/17 21:31:17;;;;;;;40.80;17.30;;;;;;;-0.12;100.00;100607.97;4808906;29;20490;-70
2021/12/17 21:33:46;;;;;;;37.17;16.73;;;;;;;-0.06;100.00;100612.84;4807695;29;20334;-71
2021/12/17 21:36:16;;;;;;;34.60;16.33;;;;;;;-0.26;100.00;100615.84;4807969;29;20031;-70
2021/12/17 21:38:44;;;;;;;39.57;16.87;;;;;;;-0.18;100.00;100618.84;4808926;29;20350;-70
2021/12/17 21:41:11;;;;;;;38.22;16.35;;;;;;;-0.33;100.00;100619.75;4808530;29;20286;-70
2021/12/17 21:43:39;;;;;;;35.77;16.27;;;;;;;-0.36;100.00;100631.28;4807395;29;20599;-71
2021/12/17 21:46:05;;;;;;;38.03;16.70;;;;;;;-0.31;100.00;100629.22;4807905;29;20274;-71
2021/12/17 21:48:31;;;;;;;39.63;16.73;;;;;;;-0.32;100.00;100632.78;4802101;29;20814;-71
2021/12/17 21:50:57;;;;;;;38.43;16.57;;;;;;;-0.35;100.00;100635.63;4825895;29;20388;-71
2021/12/17 21:53:23;;;;;;;38.03;16.13;;;;;;;-0.42;100.00;100634.28;4825697;29;20030;-71
2021/12/17 21:55:50;;;;;;;38.47;16.67;;;;;;;-0.46;100.00;100649.34;4824990;29;20030;-72
2021/12/17 21:58:16;;;;;;;37.23;16.77;;;;;;;-0.55;100.00;100655.16;4823888;29;20285;-71
2021/12/17 22:00:42;;;;;;;36.07;16.47;;;;;;;-0.53;100.00;100642.78;4824485;29;20740;-71
2021/12/17 22:03:08;;;;;;;39.37;17.00;;;;;;;-0.54;100.00;100646.34;4825190;29;20105;-71
2021/12/17 22:05:35;;;;;;;41.53;17.63;;;;;;;-0.52;100.00;100643.63;4825757;29;20358;-71
2021/12/17 22:08:04;;;;;;;40.25;18.02;;;;;;;-0.48;100.00;100648.63;4826007;29;20042;-70
2021/12/17 22:10:30;;;;;;;42.87;18.20;;;;;;;-0.57;100.00;100648.28;4824920;29;20043;-70
2021/12/17 22:12:56;;;;;;;44.17;19.53;;;;;;;-0.62;100.00;100659.06;4824102;29;20790;-70
2021/12/17 22:15:26;;;;;;;43.40;18.87;;;;;;;-0.75;100.00;100665.94;4823877;29;20369;-70
2021/12/17 22:17:55;;;;;;;40.50;18.27;;;;;;;-0.82;100.00;100662.00;4824099;29;20076;-71
2021/12/17 22:20:34;;;;;;;48.30;19.80;;;;;;;-0.76;100.00;100672.13;4823925;29;20484;-71
2021/12/17 22:23:02;;;;;;;40.72;18.98;;;;;;;-0.75;100.00;100655.47;4823873;29;20038;-71
2021/12/17 22:25:28;;;;;;;44.00;19.17;;;;;;;-0.76;100.00;100648.50;4824615;29;20034;-71
2021/12/17 22:27:54;;;;;;;47.13;19.70;;;;;;;-0.79;100.00;100649.53;4808887;29;20400;-70
2021/12/17 22:30:21;;;;;;;45.10;19.10;;;;;;;-0.78;100.00;100645.13;4824908;29;20045;-71
2021/12/17 22:32:47;;;;;;;48.90;19.23;;;;;;;-0.93;100.00;100636.38;4823554;29;20385;-70
2021/12/17 22:35:14;;;;;;;43.78;19.27;;;;;;;-0.87;100.00;100633.38;4808696;29;20049;-70
2021/12/17 22:37:43;;;;;;;45.78;18.33;;;;;;;-0.87;100.00;100632.53;4808952;29;20060;-72
2021/12/17 22:40:12;;;;;;;41.95;18.50;;;;;;;-0.84;100.00;100633.22;4825311;29;20041;-71
2021/12/17 22:42:37;;;;;;;39.17;16.80;;;;;;;-1.00;100.00;100621.88;4809338;29;20034;-69
2021/12/17 22:45:05;;;;;;;43.83;18.07;;;;;;;-1.06;100.00;100622.25;4824925;29;20487;-70
2021/12/17 22:47:30;;;;;;;43.53;17.38;;;;;;;-1.11;100.00;100619.88;4824567;29;20473;-69
2021/12/17 22:49:56;;;;;;;46.67;19.00;;;;;;;-1.14;100.00;100629.69;4808257;29;20026;-70
2021/12/17 22:52:22;;;;;;;43.83;18.27;;;;;;;-1.17;100.00;100625.47;4824431;29;20396;-70
2021/12/17 22:54:47;;;;;;;47.73;18.17;;;;;;;-1.02;100.00;100620.28;4824285;29;20030;-70
2021/12/17 22:57:13;;;;;;;57.10;19.30;;;;;;;-0.87;100.00;100614.16;4824188;29;20030;-70
2021/12/17 22:59:39;;;;;;;49.07;18.57;;;;;;;-0.90;100.00;100612.56;4824227;29;20026;-70
2021/12/17 23:02:07;;;;;;;44.92;17.17;;;;;;;-0.86;100.00;100618.47;4807628;29;20030;-70
2021/12/17 23:04:35;;;;;;;49.17;18.70;;;;;;;-0.87;100.00;100622.03;4823910;29;20043;-70
2021/12/17 23:07:04;;;;;;;48.00;18.05;;;;;;;-0.98;100.00;100630.53;4824104;29;20041;-70
2021/12/17 23:09:33;;;;;;;49.33;18.20;;;;;;;-1.05;100.00;100626.56;4824166;29;20504;-70
2021/12/17 23:12:14;;;;;;;52.90;18.70;;;;;;;-1.08;100.00;100631.13;4824207;29;20034;-70
2021/12/17 23:14:47;;;;;;;49.42;17.60;;;;;;;-1.06;100.00;100631.91;4807793;29;20030;-70
2021/12/17 23:17:16;;;;;;;47.10;17.88;;;;;;;-1.07;100.00;100640.69;4824331;29;20041;-70
2021/12/17 23:19:48;;;;;;;50.10;17.50;;;;;;;-0.97;100.00;100644.50;4823893;29;20045;-70
2021/12/17 23:22:16;;;;;;;49.95;17.48;;;;;;;-0.90;100.00;100646.66;4823926;29;20023;-70
2021/12/17 23:24:43;;;;;;;47.92;17.65;;;;;;;-0.94;100.00;100639.91;4824012;29;20520;-69
2021/12/17 23:27:08;;;;;;;46.90;16.83;;;;;;;-0.92;100.00;100645.91;4824048;29;20558;-69
2021/12/17 23:29:35;;;;;;;49.30;17.57;;;;;;;-0.99;100.00;100641.09;4823811;29;20030;-69
2021/12/17 23:32:01;;;;;;;47.88;17.33;;;;;;;-1.08;100.00;100636.38;4823870;29;20507;-69
2021/12/17 23:36:55;;;;;;;56.30;18.97;;;;;;;-1.05;100.00;100630.97;4824083;29;20025;-70
2021/12/17 23:39:21;;;;;;;56.53;18.92;;;;;;;-1.02;100.00;100630.78;4823832;29;20043;-70
2021/12/17 23:41:48;;;;;;;53.45;18.60;;;;;;;-1.03;100.00;100629.06;4823741;29;20034;-70
2021/12/17 23:44:14;;;;;;;49.88;18.60;;;;;;;-1.07;100.00;100631.06;4823803;29;20391;-68
2021/12/17 23:46:41;;;;;;;50.78;17.85;;;;;;;-1.00;100.00;100642.88;4823866;29;20038;-68
2021/12/17 23:49:08;;;;;;;59.75;20.35;;;;;;;-0.90;100.00;100632.69;4822873;29;20054;-68
2021/12/17 23:51:34;;;;;;;85.82;22.90;;;;;;;-0.44;100.00;100641.38;4822695;29;20485;-68
2021/12/17 23:54:00;;;;;;;71.25;21.02;;;;;;;-0.43;100.00;100638.69;4823755;29;20046;-68
2021/12/17 23:56:28;;;;;;;64.93;20.63;;;;;;;-0.45;100.00;100639.69;4823482;29;20109;-68
2021/12/17 23:58:55;;;;;;;67.80;21.17;;;;;;;-0.23;100.00;100637.50;4823810;29;20030;-68
